createdAt,value
2018-07-07T00:00:57.408Z,11.82
2018-07-07T00:01:57.400Z,11.81
2018-07-07T00:02:57.135Z,11.79
2018-07-07T00:03:57.384Z,11.94
2018-07-07T00:04:57.122Z,11.88
2018-07-07T00:05:57.117Z,11.89
2018-07-07T00:06:57.362Z,11.84
2018-07-07T00:07:57.109Z,11.79
2018-07-07T00:08:57.347Z,11.84
2018-07-07T00:09:57.086Z,11.79
2018-07-07T00:10:57.075Z,11.75
2018-07-07T00:11:57.069Z,11.78
2018-07-07T00:12:57.065Z,11.76
2018-07-07T00:13:57.059Z,11.61
2018-07-07T00:14:56.790Z,11.66
2018-07-07T00:15:57.296Z,11.66
2018-07-07T00:16:57.036Z,11.7
2018-07-07T00:17:57.288Z,11.71
2018-07-07T00:18:57.016Z,11.67
2018-07-07T00:19:56.753Z,11.73
2018-07-07T00:20:57.263Z,11.64
2018-07-07T00:21:57.251Z,11.67
2018-07-07T00:22:57.246Z,11.56
2018-07-07T00:23:56.985Z,11.64
2018-07-07T00:24:56.974Z,11.66
2018-07-07T00:25:56.972Z,11.53
2018-07-07T00:26:57.218Z,11.57
2018-07-07T00:27:56.948Z,11.46
2018-07-07T00:28:57.197Z,11.46
2018-07-07T00:29:56.935Z,11.35
2018-07-07T00:30:57.182Z,11.48
2018-07-07T00:31:57.176Z,11.39
2018-07-07T00:32:56.914Z,11.43
2018-07-07T00:33:57.161Z,11.34
2018-07-07T00:34:56.895Z,11.27
2018-07-07T00:35:57.148Z,11.33
2018-07-07T00:36:57.143Z,11.31
2018-07-07T00:37:57.131Z,11.34
2018-07-07T00:38:56.869Z,11.31
2018-07-07T00:39:56.857Z,11.33
2018-07-07T00:40:57.160Z,11.3
2018-07-07T00:41:57.100Z,11.23
2018-07-07T00:42:57.092Z,11.23
2018-07-07T00:43:57.082Z,11.2
2018-07-07T00:44:56.563Z,11.15
2018-07-07T00:45:57.067Z,11.13
2018-07-07T00:46:56.805Z,11.13
2018-07-07T00:47:56.795Z,11.06
2018-07-07T00:48:57.044Z,11.06
2018-07-07T00:49:57.037Z,11.06
2018-07-07T00:50:56.771Z,11
2018-07-07T00:51:57.020Z,10.91
2018-07-07T00:52:56.503Z,10.87
2018-07-07T00:53:57.001Z,10.87
2018-07-07T00:54:56.999Z,10.9
2018-07-07T00:55:56.992Z,10.88
2018-07-07T00:56:56.726Z,10.87
2018-07-07T00:57:56.718Z,10.94
2018-07-07T00:58:56.708Z,10.84
2018-07-07T00:59:56.953Z,10.79
2018-07-07T01:00:56.435Z,10.77
2018-07-07T01:01:56.944Z,10.69
2018-07-07T01:02:56.936Z,10.66
2018-07-07T01:03:56.671Z,10.69
2018-07-07T01:04:56.917Z,10.63
2018-07-07T01:05:56.907Z,10.69
2018-07-07T01:06:56.905Z,10.58
2018-07-07T01:07:56.897Z,10.58
2018-07-07T01:08:56.885Z,10.58
2018-07-07T01:09:56.628Z,10.57
2018-07-07T01:10:56.878Z,10.49
2018-07-07T01:11:56.868Z,10.46
2018-07-07T01:12:56.604Z,10.52
2018-07-07T01:13:56.851Z,10.39
2018-07-07T01:14:56.586Z,10.36
2018-07-07T01:15:56.833Z,10.42
2018-07-07T01:16:56.836Z,10.42
2018-07-07T01:17:56.818Z,10.46
2018-07-07T01:18:56.813Z,10.41
2018-07-07T01:19:56.805Z,10.36
2018-07-07T01:20:56.538Z,10.25
2018-07-07T01:21:56.527Z,10.31
2018-07-07T01:22:56.774Z,10.25
2018-07-07T01:23:56.760Z,10.28
2018-07-07T01:24:56.753Z,10.2
2018-07-07T01:25:56.495Z,10.29
2018-07-07T01:26:56.737Z,10.26
2018-07-07T01:27:56.728Z,10.1
2018-07-07T01:28:56.204Z,10.2
2018-07-07T01:29:56.709Z,10.05
2018-07-07T01:30:56.708Z,10.05
2018-07-07T01:31:56.692Z,10.11
2018-07-07T01:32:56.685Z,10.03
2018-07-07T01:33:56.674Z,9.96
2018-07-07T01:34:56.664Z,10.02
2018-07-07T01:35:56.658Z,10.07
2018-07-07T01:36:56.664Z,10.02
2018-07-07T01:37:56.126Z,10.02
2018-07-07T01:38:56.632Z,9.93
2018-07-07T01:39:56.620Z,9.95
2018-07-07T01:40:56.612Z,9.95
2018-07-07T01:41:56.606Z,9.93
2018-07-07T01:42:56.596Z,9.95
2018-07-07T01:43:56.591Z,9.96
2018-07-07T01:44:56.577Z,9.96
2018-07-07T01:45:56.565Z,9.95
2018-07-07T01:46:56.557Z,9.95
2018-07-07T01:47:56.294Z,9.95
2018-07-07T01:48:56.542Z,9.92
2018-07-07T01:49:56.280Z,9.92
2018-07-07T01:50:56.269Z,9.89
2018-07-07T01:51:56.526Z,9.82
2018-07-07T01:52:56.253Z,9.8
2018-07-07T01:53:56.499Z,9.84
2018-07-07T01:54:56.492Z,9.81
2018-07-07T01:55:56.224Z,9.8
2018-07-07T01:56:56.470Z,9.8
2018-07-07T01:57:56.462Z,9.75
2018-07-07T01:58:56.451Z,9.74
2018-07-07T01:59:56.187Z,9.77
2018-07-07T02:00:56.433Z,9.75
2018-07-07T02:01:56.424Z,9.67
2018-07-07T02:02:56.418Z,9.67
2018-07-07T02:03:56.407Z,9.75
2018-07-07T02:04:56.398Z,9.67
2018-07-07T02:05:56.136Z,9.64
2018-07-07T02:06:56.383Z,9.72
2018-07-07T02:07:55.858Z,9.67
2018-07-07T02:08:56.365Z,9.7
2018-07-07T02:09:56.354Z,9.62
2018-07-07T02:10:56.086Z,9.67
2018-07-07T02:11:56.332Z,9.55
2018-07-07T02:12:56.325Z,9.57
2018-07-07T02:13:56.315Z,9.56
2018-07-07T02:14:56.304Z,9.62
2018-07-07T02:15:56.039Z,9.62
2018-07-07T02:16:56.290Z,9.59
2018-07-07T02:17:56.276Z,9.53
2018-07-07T02:18:56.455Z,9.64
2018-07-07T02:19:56.263Z,9.66
2018-07-07T02:20:56.250Z,9.66
2018-07-07T02:21:56.244Z,9.64
2018-07-07T02:22:55.977Z,9.6
2018-07-07T02:23:56.219Z,9.59
2018-07-07T02:24:55.958Z,9.53
2018-07-07T02:25:56.206Z,9.56
2018-07-07T02:26:56.195Z,9.6
2018-07-07T02:27:56.183Z,9.59
2018-07-07T02:28:56.173Z,9.5
2018-07-07T02:29:56.165Z,9.5
2018-07-07T02:30:56.164Z,9.53
2018-07-07T02:31:56.149Z,9.45
2018-07-07T02:32:55.882Z,9.42
2018-07-07T02:33:55.621Z,9.39
2018-07-07T02:34:56.130Z,9.29
2018-07-07T02:35:56.117Z,9.32
2018-07-07T02:36:55.849Z,9.37
2018-07-07T02:37:55.579Z,9.37
2018-07-07T02:38:56.086Z,9.34
2018-07-07T02:39:56.102Z,9.35
2018-07-07T02:40:55.807Z,9.34
2018-07-07T02:41:56.055Z,9.3
2018-07-07T02:42:55.796Z,9.19
2018-07-07T02:43:56.042Z,9.16
2018-07-07T02:44:56.027Z,9.01
2018-07-07T02:45:56.023Z,9.03
2018-07-07T02:46:56.012Z,8.98
2018-07-07T02:47:55.743Z,9.03
2018-07-07T02:48:55.996Z,9.05
2018-07-07T02:49:55.720Z,9
2018-07-07T02:50:55.968Z,8.98
2018-07-07T02:51:55.700Z,9.03
2018-07-07T02:52:55.974Z,9.04
2018-07-07T02:53:55.941Z,8.82
2018-07-07T02:54:55.672Z,8.92
2018-07-07T02:55:55.921Z,8.9
2018-07-07T02:56:55.670Z,8.85
2018-07-07T02:57:55.899Z,8.86
2018-07-07T02:58:55.905Z,8.79
2018-07-07T02:59:55.883Z,8.74
2018-07-07T03:00:55.872Z,8.87
2018-07-07T03:01:55.861Z,8.79
2018-07-07T03:02:55.615Z,8.76
2018-07-07T03:03:55.847Z,8.74
2018-07-07T03:04:55.318Z,8.87
2018-07-07T03:05:55.831Z,8.77
2018-07-07T03:06:55.810Z,8.8
2018-07-07T03:07:55.803Z,8.72
2018-07-07T03:08:55.801Z,8.72
2018-07-07T03:09:55.784Z,8.77
2018-07-07T03:10:55.515Z,8.76
2018-07-07T03:11:55.779Z,8.71
2018-07-07T03:12:55.753Z,8.74
2018-07-07T03:13:55.746Z,8.69
2018-07-07T03:14:55.474Z,8.67
2018-07-07T03:15:55.729Z,8.71
2018-07-07T03:16:55.724Z,8.71
2018-07-07T03:17:55.450Z,8.69
2018-07-07T03:18:55.436Z,8.65
2018-07-07T03:19:55.422Z,8.62
2018-07-07T03:20:55.674Z,8.6
2018-07-07T03:21:55.412Z,8.64
2018-07-07T03:22:55.395Z,8.67
2018-07-07T03:23:55.644Z,8.65
2018-07-07T03:24:55.631Z,8.57
2018-07-07T03:25:55.368Z,8.65
2018-07-07T03:26:55.615Z,8.62
2018-07-07T03:27:55.601Z,8.57
2018-07-07T03:28:55.590Z,8.62
2018-07-07T03:29:55.588Z,8.62
2018-07-07T03:30:55.574Z,8.61
2018-07-07T03:31:55.318Z,8.62
2018-07-07T03:32:55.551Z,8.64
2018-07-07T03:33:55.284Z,8.64
2018-07-07T03:34:55.273Z,8.64
2018-07-07T03:35:55.271Z,8.65
2018-07-07T03:36:55.508Z,8.64
2018-07-07T03:37:55.498Z,8.62
2018-07-07T03:38:55.492Z,8.64
2018-07-07T03:39:55.484Z,8.68
2018-07-07T03:40:55.482Z,8.61
2018-07-07T03:41:55.460Z,8.6
2018-07-07T03:42:55.456Z,8.64
2018-07-07T03:43:55.443Z,8.62
2018-07-07T03:44:55.429Z,8.58
2018-07-07T03:45:54.911Z,8.65
2018-07-07T03:46:55.411Z,8.64
2018-07-07T03:47:55.146Z,8.67
2018-07-07T03:48:55.392Z,8.67
2018-07-07T03:49:55.380Z,8.65
2018-07-07T03:50:55.114Z,8.69
2018-07-07T03:51:55.364Z,8.62
2018-07-07T03:52:55.094Z,8.62
2018-07-07T03:53:55.086Z,8.62
2018-07-07T03:54:55.072Z,8.69
2018-07-07T03:55:55.325Z,8.58
2018-07-07T03:56:55.057Z,8.61
2018-07-07T03:57:55.298Z,8.62
2018-07-07T03:58:55.114Z,8.74
2018-07-07T03:59:55.279Z,8.74
2018-07-07T04:00:55.024Z,8.69
2018-07-07T04:01:55.259Z,8.77
2018-07-07T04:02:55.246Z,8.69
2018-07-07T04:03:55.234Z,8.76
2018-07-07T04:04:55.223Z,8.8
2018-07-07T04:05:55.221Z,8.71
2018-07-07T04:06:55.213Z,8.87
2018-07-07T04:07:54.939Z,8.87
2018-07-07T04:08:55.191Z,8.87
2018-07-07T04:09:54.925Z,8.82
2018-07-07T04:10:54.908Z,8.89
2018-07-07T04:11:55.154Z,9
2018-07-07T04:12:55.143Z,8.83
2018-07-07T04:13:55.135Z,8.97
2018-07-07T04:14:54.866Z,8.89
2018-07-07T04:15:55.125Z,8.94
2018-07-07T04:16:54.846Z,8.89
2018-07-07T04:17:55.093Z,8.94
2018-07-07T04:18:55.085Z,9.04
2018-07-07T04:19:54.560Z,9
2018-07-07T04:20:54.549Z,8.98
2018-07-07T04:21:55.054Z,8.97
2018-07-07T04:22:55.041Z,9.03
2018-07-07T04:23:55.037Z,8.97
2018-07-07T04:24:54.765Z,8.98
2018-07-07T04:25:55.020Z,9
2018-07-07T04:26:55.002Z,9
2018-07-07T04:27:54.735Z,9.03
2018-07-07T04:28:54.723Z,9.08
2018-07-07T04:29:54.974Z,9.16
2018-07-07T04:30:54.718Z,9.2
2018-07-07T04:31:54.703Z,9.2
2018-07-07T04:32:54.684Z,9.3
2018-07-07T04:33:54.933Z,9.26
2018-07-07T04:34:54.921Z,9.27
2018-07-07T04:35:54.924Z,9.37
2018-07-07T04:36:54.903Z,9.3
2018-07-07T04:37:54.640Z,9.48
2018-07-07T04:38:54.882Z,9.41
2018-07-07T04:39:54.877Z,9.5
2018-07-07T04:40:54.606Z,9.55
2018-07-07T04:41:54.857Z,9.53
2018-07-07T04:42:54.846Z,9.55
2018-07-07T04:43:54.836Z,9.62
2018-07-07T04:44:54.569Z,9.64
2018-07-07T04:45:54.937Z,9.72
2018-07-07T04:46:54.807Z,9.67
2018-07-07T04:47:54.797Z,9.75
2018-07-07T04:48:54.537Z,9.8
2018-07-07T04:49:54.522Z,9.85
2018-07-07T04:50:54.770Z,9.81
2018-07-07T04:51:54.758Z,9.96
2018-07-07T04:52:54.749Z,9.98
2018-07-07T04:53:54.748Z,10.08
2018-07-07T04:54:54.729Z,10.07
2018-07-07T04:55:54.721Z,9.98
2018-07-07T04:56:54.713Z,10.07
2018-07-07T04:57:54.703Z,10.14
2018-07-07T04:58:54.694Z,10.14
2018-07-07T04:59:54.687Z,10.23
2018-07-07T05:00:54.674Z,10.26
2018-07-07T05:01:54.663Z,10.29
2018-07-07T05:02:54.669Z,10.29
2018-07-07T05:03:54.389Z,10.44
2018-07-07T05:04:54.389Z,10.35
2018-07-07T05:05:54.628Z,10.44
2018-07-07T05:06:54.363Z,10.52
2018-07-07T05:07:54.627Z,10.55
2018-07-07T05:08:54.349Z,10.58
2018-07-07T05:09:54.600Z,10.65
2018-07-07T05:10:54.582Z,10.7
2018-07-07T05:11:54.578Z,10.69
2018-07-07T05:12:54.565Z,10.84
2018-07-07T05:13:54.302Z,10.8
2018-07-07T05:14:54.550Z,10.84
2018-07-07T05:15:54.539Z,11
2018-07-07T05:16:54.528Z,10.98
2018-07-07T05:17:54.523Z,10.97
2018-07-07T05:18:54.254Z,11.02
2018-07-07T05:19:53.987Z,11.12
2018-07-07T05:20:54.496Z,11.13
2018-07-07T05:21:54.484Z,11.13
2018-07-07T05:22:54.473Z,11.31
2018-07-07T05:23:53.955Z,11.35
2018-07-07T05:24:54.459Z,11.42
2018-07-07T05:25:54.449Z,11.43
2018-07-07T05:26:54.474Z,11.57
2018-07-07T05:27:54.440Z,11.63
2018-07-07T05:28:54.426Z,11.66
2018-07-07T05:29:54.159Z,11.73
2018-07-07T05:30:54.408Z,11.88
2018-07-07T05:31:54.758Z,11.88
2018-07-07T05:32:54.135Z,11.97
2018-07-07T05:33:54.129Z,11.95
2018-07-07T05:34:54.373Z,12.01
2018-07-07T05:35:54.517Z,12.03
2018-07-07T05:36:54.363Z,12.16
2018-07-07T05:37:53.843Z,12.16
2018-07-07T05:38:54.084Z,12.26
2018-07-07T05:39:53.819Z,12.25
2018-07-07T05:40:54.073Z,12.34
2018-07-07T05:41:54.316Z,12.29
2018-07-07T05:42:54.052Z,12.36
2018-07-07T05:43:54.300Z,12.4
2018-07-07T05:44:54.038Z,12.51
2018-07-07T05:45:54.294Z,12.51
2018-07-07T05:46:54.276Z,12.65
2018-07-07T05:47:54.022Z,12.61
2018-07-07T05:48:54.005Z,12.61
2018-07-07T05:49:54.258Z,12.59
2018-07-07T05:50:54.247Z,12.59
2018-07-07T05:51:53.983Z,12.7
2018-07-07T05:52:54.233Z,12.73
2018-07-07T05:53:54.222Z,12.76
2018-07-07T05:54:54.214Z,12.73
2018-07-07T05:55:54.209Z,12.89
2018-07-07T05:56:53.943Z,12.88
2018-07-07T05:57:54.203Z,12.98
2018-07-07T05:58:53.930Z,13.01
2018-07-07T05:59:53.666Z,13.03
2018-07-07T06:00:54.171Z,13.09
2018-07-07T06:01:53.910Z,13.11
2018-07-07T06:02:53.903Z,13.25
2018-07-07T06:03:53.893Z,13.21
2018-07-07T06:04:54.144Z,13.24
2018-07-07T06:05:53.878Z,13.31
2018-07-07T06:06:54.135Z,13.24
2018-07-07T06:07:54.126Z,13.29
2018-07-07T06:08:54.111Z,13.31
2018-07-07T06:09:53.848Z,13.31
2018-07-07T06:10:53.842Z,13.35
2018-07-07T06:11:53.836Z,13.4
2018-07-07T06:12:54.085Z,13.37
2018-07-07T06:13:54.082Z,13.48
2018-07-07T06:14:53.814Z,13.39
2018-07-07T06:15:53.807Z,13.47
2018-07-07T06:16:53.801Z,13.51
2018-07-07T06:17:54.051Z,13.54
2018-07-07T06:18:53.786Z,13.5
2018-07-07T06:19:54.042Z,13.51
2018-07-07T06:20:53.778Z,13.57
2018-07-07T06:21:54.036Z,13.53
2018-07-07T06:22:54.021Z,13.54
2018-07-07T06:23:54.015Z,13.5
2018-07-07T06:24:54.010Z,13.53
2018-07-07T06:25:54.002Z,13.55
2018-07-07T06:26:54.349Z,13.63
2018-07-07T06:27:53.993Z,13.66
2018-07-07T06:28:53.989Z,13.66
2018-07-07T06:29:53.980Z,13.68
2018-07-07T06:30:53.973Z,13.69
2018-07-07T06:31:53.969Z,13.76
2018-07-07T06:32:53.704Z,13.79
2018-07-07T06:33:53.956Z,13.76
2018-07-07T06:34:53.951Z,13.94
2018-07-07T06:35:53.687Z,13.99
2018-07-07T06:36:53.944Z,13.95
2018-07-07T06:37:53.933Z,14.01
2018-07-07T06:38:53.927Z,14.12
2018-07-07T06:39:53.665Z,14.19
2018-07-07T06:40:53.918Z,14.08
2018-07-07T06:41:53.650Z,14.12
2018-07-07T06:42:53.907Z,14.15
2018-07-07T06:43:54.031Z,14.27
2018-07-07T06:44:53.890Z,14.33
2018-07-07T06:45:53.890Z,14.7
2018-07-07T06:46:53.877Z,15.41
2018-07-07T06:47:53.871Z,16.29
2018-07-07T06:48:53.923Z,17.25
2018-07-07T06:49:53.861Z,18.35
2018-07-07T06:50:53.600Z,19.34
2018-07-07T06:51:53.595Z,20.25
2018-07-07T06:52:53.333Z,21.08
2018-07-07T06:53:54.206Z,21.37
2018-07-07T06:54:53.838Z,21.68
2018-07-07T06:55:53.840Z,22.08
2018-07-07T06:56:53.831Z,22.42
2018-07-07T06:57:53.837Z,22.64
2018-07-07T06:58:53.828Z,22.88
2018-07-07T06:59:53.664Z,23.01
2018-07-07T07:00:53.565Z,23.44
2018-07-07T07:01:53.820Z,23.92
2018-07-07T07:02:53.821Z,24.42
2018-07-07T07:03:53.836Z,24.87
2018-07-07T07:04:53.826Z,25.23
2018-07-07T07:05:53.826Z,25.57
2018-07-07T07:06:53.560Z,26.19
2018-07-07T07:07:53.815Z,26.49
2018-07-07T07:08:53.814Z,26.82
2018-07-07T07:09:53.558Z,26.99
2018-07-07T07:10:53.562Z,27.28
2018-07-07T07:11:53.946Z,27.53
2018-07-07T07:12:53.864Z,27.86
2018-07-07T07:13:53.826Z,27.98
2018-07-07T07:14:53.824Z,28.16
2018-07-07T07:15:53.829Z,28.31
2018-07-07T07:16:53.824Z,28.53
2018-07-07T07:17:53.578Z,28.6
2018-07-07T07:18:53.829Z,28.61
2018-07-07T07:19:53.604Z,28.9
2018-07-07T07:20:53.582Z,29.05
2018-07-07T07:21:53.838Z,29.1
2018-07-07T07:22:53.843Z,29.26
2018-07-07T07:23:53.843Z,29.23
2018-07-07T07:24:53.850Z,29.39
2018-07-07T07:25:53.959Z,29.57
2018-07-07T07:26:53.854Z,29.61
2018-07-07T07:27:53.606Z,29.63
2018-07-07T07:28:53.860Z,29.32
2018-07-07T07:29:53.609Z,29.1
2018-07-07T07:30:53.877Z,29.03
2018-07-07T07:31:53.875Z,28.95
2018-07-07T07:32:53.928Z,28.95
2018-07-07T07:33:53.625Z,29.08
2018-07-07T07:34:53.894Z,29.05
2018-07-07T07:35:53.928Z,28.98
2018-07-07T07:36:54.040Z,28.91
2018-07-07T07:37:53.902Z,28.51
2018-07-07T07:38:53.950Z,27.94
2018-07-07T07:39:53.955Z,27.43
2018-07-07T07:40:53.927Z,26.86
2018-07-07T07:41:53.918Z,26.47
2018-07-07T07:42:53.665Z,26.07
2018-07-07T07:43:53.929Z,25.75
2018-07-07T07:44:53.936Z,25.23
2018-07-07T07:45:53.932Z,24.46
2018-07-07T07:46:53.941Z,23.64
2018-07-07T07:47:53.427Z,22.76
2018-07-07T07:48:53.943Z,22.07
2018-07-07T07:49:53.949Z,21.37
2018-07-07T07:50:53.692Z,20.81
2018-07-07T07:51:53.955Z,20.42
2018-07-07T07:52:54.253Z,20.04
2018-07-07T07:53:53.956Z,19.95
2018-07-07T07:54:53.957Z,20.02
2018-07-07T07:55:53.960Z,19.95
2018-07-07T07:56:53.960Z,20.01
2018-07-07T07:57:53.961Z,20.07
2018-07-07T07:58:53.991Z,20.34
2018-07-07T07:59:53.701Z,20.88
2018-07-07T08:00:53.707Z,21.51
2018-07-07T08:01:53.965Z,22.46
2018-07-07T08:02:53.960Z,23.34
2018-07-07T08:03:53.706Z,24.24
2018-07-07T08:04:54.165Z,25.02
2018-07-07T08:05:53.965Z,25.48
2018-07-07T08:06:53.703Z,25.91
2018-07-07T08:07:53.962Z,26.16
2018-07-07T08:08:53.970Z,26.41
2018-07-07T08:09:53.449Z,26.67
2018-07-07T08:10:53.705Z,26.64
2018-07-07T08:11:53.963Z,26.67
2018-07-07T08:12:53.966Z,26.87
2018-07-07T08:13:53.971Z,27.23
2018-07-07T08:14:53.984Z,27.16
2018-07-07T08:15:53.711Z,27.11
2018-07-07T08:16:53.970Z,27.21
2018-07-07T08:17:53.977Z,27.12
2018-07-07T08:18:53.710Z,27.05
2018-07-07T08:19:53.968Z,26.78
2018-07-07T08:20:53.973Z,26.41
2018-07-07T08:21:53.974Z,25.91
2018-07-07T08:22:54.092Z,25.49
2018-07-07T08:23:53.715Z,25.27
2018-07-07T08:24:53.974Z,24.93
2018-07-07T08:25:53.974Z,24.46
2018-07-07T08:26:53.973Z,24
2018-07-07T08:27:53.972Z,23.63
2018-07-07T08:28:53.974Z,23.26
2018-07-07T08:29:53.972Z,22.91
2018-07-07T08:30:53.974Z,22.49
2018-07-07T08:31:53.728Z,22.16
2018-07-07T08:32:53.974Z,21.83
2018-07-07T08:33:53.714Z,21.74
2018-07-07T08:34:53.976Z,21.46
2018-07-07T08:35:53.972Z,21.23
2018-07-07T08:36:53.978Z,21.08
2018-07-07T08:37:53.974Z,21.03
2018-07-07T08:38:53.972Z,20.98
2018-07-07T08:39:53.970Z,20.96
2018-07-07T08:40:53.968Z,20.93
2018-07-07T08:41:54.273Z,20.83
2018-07-07T08:42:53.966Z,20.67
2018-07-07T08:43:53.710Z,20.51
2018-07-07T08:44:53.967Z,20.42
2018-07-07T08:45:53.709Z,20.53
2018-07-07T08:46:53.973Z,20.53
2018-07-07T08:47:53.963Z,20.56
2018-07-07T08:48:53.966Z,20.57
2018-07-07T08:49:53.961Z,20.67
2018-07-07T08:50:53.960Z,20.66
2018-07-07T08:51:53.960Z,20.74
2018-07-07T08:52:53.702Z,20.71
2018-07-07T08:53:53.957Z,20.58
2018-07-07T08:54:53.956Z,20.6
2018-07-07T08:55:53.962Z,20.56
2018-07-07T08:56:53.697Z,20.56
2018-07-07T08:57:53.696Z,20.46
2018-07-07T08:58:53.951Z,20.38
2018-07-07T08:59:53.953Z,20.38
2018-07-07T09:00:53.692Z,20.35
2018-07-07T09:01:53.947Z,20.37
2018-07-07T09:02:53.689Z,20.44
2018-07-07T09:03:53.688Z,20.46
2018-07-07T09:04:53.941Z,20.42
2018-07-07T09:05:53.945Z,20.49
2018-07-07T09:06:53.954Z,20.48
2018-07-07T09:07:53.837Z,20.49
2018-07-07T09:08:53.943Z,20.63
2018-07-07T09:09:53.939Z,20.58
2018-07-07T09:10:53.937Z,20.72
2018-07-07T09:11:53.683Z,20.75
2018-07-07T09:12:53.933Z,20.74
2018-07-07T09:13:53.932Z,20.71
2018-07-07T09:14:53.929Z,20.81
2018-07-07T09:15:53.927Z,20.75
2018-07-07T09:16:53.937Z,20.82
2018-07-07T09:17:53.923Z,20.91
2018-07-07T09:18:53.953Z,21
2018-07-07T09:19:53.924Z,20.97
2018-07-07T09:20:53.928Z,21.08
2018-07-07T09:21:53.925Z,20.97
2018-07-07T09:22:53.917Z,20.98
2018-07-07T09:23:53.661Z,21.04
2018-07-07T09:24:53.658Z,21.06
2018-07-07T09:25:53.920Z,21.18
2018-07-07T09:26:53.916Z,21.13
2018-07-07T09:27:53.915Z,21.15
2018-07-07T09:28:53.910Z,21.21
2018-07-07T09:29:53.906Z,21.15
2018-07-07T09:30:54.096Z,21.18
2018-07-07T09:31:53.910Z,21.06
2018-07-07T09:32:53.921Z,21.03
2018-07-07T09:33:53.900Z,21
2018-07-07T09:34:53.900Z,21.06
2018-07-07T09:35:53.386Z,21.04
2018-07-07T09:36:53.640Z,21.08
2018-07-07T09:37:53.384Z,21.12
2018-07-07T09:38:53.410Z,21.16
2018-07-07T09:39:53.635Z,21.13
2018-07-07T09:40:53.635Z,21.33
2018-07-07T09:41:53.632Z,21.23
2018-07-07T09:42:53.895Z,21.37
2018-07-07T09:43:53.893Z,21.33
2018-07-07T09:44:53.892Z,21.25
2018-07-07T09:45:53.887Z,21.21
2018-07-07T09:46:53.886Z,21.21
2018-07-07T09:47:53.883Z,21.25
2018-07-07T09:48:53.884Z,21.28
2018-07-07T09:49:53.624Z,21.25
2018-07-07T09:50:53.882Z,21.31
2018-07-07T09:51:53.884Z,21.34
2018-07-07T09:52:53.878Z,21.41
2018-07-07T09:53:53.618Z,21.52
2018-07-07T09:54:53.884Z,21.66
2018-07-07T09:55:53.874Z,21.71
2018-07-07T09:56:53.874Z,21.64
2018-07-07T09:57:53.621Z,21.62
2018-07-07T09:58:53.613Z,21.49
2018-07-07T09:59:53.870Z,21.46
2018-07-07T10:00:53.615Z,21.45
2018-07-07T10:01:54.115Z,21.28
2018-07-07T10:02:53.870Z,21.23
2018-07-07T10:03:53.603Z,21.12
2018-07-07T10:04:53.863Z,21.16
2018-07-07T10:05:53.858Z,21.09
2018-07-07T10:06:53.860Z,21.01
2018-07-07T10:07:53.875Z,20.9
2018-07-07T10:08:53.854Z,20.97
2018-07-07T10:09:53.854Z,20.94
2018-07-07T10:10:53.862Z,20.96
2018-07-07T10:11:53.860Z,21.23
2018-07-07T10:12:53.860Z,21.33
2018-07-07T10:13:53.853Z,21.27
2018-07-07T10:14:53.844Z,21.41
2018-07-07T10:15:53.841Z,21.34
2018-07-07T10:16:53.585Z,21.34
2018-07-07T10:17:53.844Z,21.31
2018-07-07T10:18:53.845Z,21.49
2018-07-07T10:19:53.584Z,21.34
2018-07-07T10:20:53.976Z,21.31
2018-07-07T10:21:53.583Z,21.4
2018-07-07T10:22:53.833Z,21.46
2018-07-07T10:23:53.837Z,21.38
2018-07-07T10:24:53.841Z,21.37
2018-07-07T10:25:53.830Z,21.34
2018-07-07T10:26:53.831Z,21.46
2018-07-07T10:27:53.832Z,21.64
2018-07-07T10:28:53.824Z,21.78
2018-07-07T10:29:53.827Z,21.86
2018-07-07T10:30:53.569Z,21.9
2018-07-07T10:31:53.576Z,22
2018-07-07T10:32:53.567Z,21.86
2018-07-07T10:33:53.567Z,21.93
2018-07-07T10:34:53.817Z,22.02
2018-07-07T10:35:53.816Z,21.92
2018-07-07T10:36:53.557Z,21.96
2018-07-07T10:37:53.823Z,21.82
2018-07-07T10:38:53.555Z,21.99
2018-07-07T10:39:53.556Z,22
2018-07-07T10:40:53.297Z,21.92
2018-07-07T10:41:53.552Z,21.9
2018-07-07T10:42:53.811Z,21.86
2018-07-07T10:43:53.806Z,21.78
2018-07-07T10:44:53.809Z,21.9
2018-07-07T10:45:54.168Z,21.8
2018-07-07T10:46:53.546Z,21.85
2018-07-07T10:47:53.829Z,21.89
2018-07-07T10:48:53.316Z,21.9
2018-07-07T10:49:53.815Z,22
2018-07-07T10:50:53.543Z,21.89
2018-07-07T10:51:53.541Z,21.92
2018-07-07T10:52:53.818Z,21.94
2018-07-07T10:53:53.800Z,22.02
2018-07-07T10:54:53.804Z,22.05
2018-07-07T10:55:53.805Z,22.12
2018-07-07T10:56:53.539Z,22.22
2018-07-07T10:57:53.794Z,22.11
2018-07-07T10:58:54.037Z,22.23
2018-07-07T10:59:53.790Z,22.3
2018-07-07T11:00:53.789Z,22.3
2018-07-07T11:01:53.535Z,22.38
2018-07-07T11:02:53.795Z,22.41
2018-07-07T11:03:53.529Z,22.38
2018-07-07T11:04:53.787Z,22.31
2018-07-07T11:05:53.790Z,22.23
2018-07-07T11:06:53.785Z,22.26
2018-07-07T11:07:53.526Z,22.34
2018-07-07T11:08:53.782Z,22.38
2018-07-07T11:09:53.789Z,22.42
2018-07-07T11:10:53.782Z,22.33
2018-07-07T11:11:54.376Z,22.3
2018-07-07T11:12:53.779Z,22.2
2018-07-07T11:13:53.526Z,22.26
2018-07-07T11:14:53.779Z,22.23
2018-07-07T11:15:53.522Z,22.34
2018-07-07T11:16:53.523Z,22.39
2018-07-07T11:17:53.519Z,22.44
2018-07-07T11:18:53.776Z,22.38
2018-07-07T11:19:53.835Z,22.46
2018-07-07T11:20:53.522Z,22.46
2018-07-07T11:21:53.775Z,22.39
2018-07-07T11:22:53.779Z,22.44
2018-07-07T11:23:53.772Z,22.48
2018-07-07T11:24:53.817Z,22.55
2018-07-07T11:25:53.776Z,22.52
2018-07-07T11:26:53.771Z,22.49
2018-07-07T11:27:53.772Z,22.48
2018-07-07T11:28:53.768Z,22.54
2018-07-07T11:29:54.050Z,22.48
2018-07-07T11:30:53.774Z,22.42
2018-07-07T11:31:53.521Z,22.49
2018-07-07T11:32:53.768Z,22.54
2018-07-07T11:33:53.509Z,22.54
2018-07-07T11:34:53.766Z,22.54
2018-07-07T11:35:53.509Z,22.55
2018-07-07T11:36:53.703Z,22.38
2018-07-07T11:37:53.509Z,22.27
2018-07-07T11:38:53.762Z,22.27
2018-07-07T11:39:53.762Z,22.15
2018-07-07T11:40:53.259Z,22.08
2018-07-07T11:41:53.249Z,22.04
2018-07-07T11:42:53.762Z,22.2
2018-07-07T11:43:53.760Z,22.24
2018-07-07T11:44:53.509Z,22.14
2018-07-07T11:45:53.761Z,22.22
2018-07-07T11:46:53.761Z,22.34
2018-07-07T11:47:53.764Z,22.34
2018-07-07T11:48:53.504Z,22.45
2018-07-07T11:49:53.501Z,22.41
2018-07-07T11:50:53.500Z,22.41
2018-07-07T11:51:53.757Z,22.51
2018-07-07T11:52:53.501Z,22.3
2018-07-07T11:53:53.757Z,22.24
2018-07-07T11:54:53.757Z,22.2
2018-07-07T11:55:53.245Z,22.07
2018-07-07T11:56:53.754Z,22.11
2018-07-07T11:57:53.501Z,22.11
2018-07-07T11:58:53.496Z,22.24
2018-07-07T11:59:53.760Z,22.34
2018-07-07T12:00:53.240Z,22.42
2018-07-07T12:01:53.841Z,22.55
2018-07-07T12:02:53.497Z,22.59
2018-07-07T12:03:53.750Z,22.55
2018-07-07T12:04:54.259Z,22.46
2018-07-07T12:05:53.235Z,22.44
2018-07-07T12:06:53.493Z,22.46
2018-07-07T12:08:18.585Z,22.33
2018-07-07T12:08:53.491Z,22.27
2018-07-07T12:09:53.490Z,22.23
2018-07-07T12:10:53.747Z,22.24
2018-07-07T12:11:53.498Z,22.3
2018-07-07T12:12:53.747Z,22.33
2018-07-07T12:13:53.746Z,22.42
2018-07-07T12:14:53.753Z,22.45
2018-07-07T12:15:53.487Z,22.46
2018-07-07T12:16:53.489Z,22.38
2018-07-07T12:17:53.745Z,22.45
2018-07-07T12:18:53.751Z,22.54
2018-07-07T12:19:53.744Z,22.44
2018-07-07T12:20:53.486Z,22.52
2018-07-07T12:21:53.489Z,22.55
2018-07-07T12:22:53.746Z,22.6
2018-07-07T12:23:53.743Z,22.67
2018-07-07T12:24:53.881Z,22.82
2018-07-07T12:25:53.487Z,22.76
2018-07-07T12:26:53.746Z,22.75
2018-07-07T12:27:53.741Z,22.76
2018-07-07T12:28:53.743Z,22.84
2018-07-07T12:29:53.742Z,22.88
2018-07-07T12:30:53.487Z,22.88
2018-07-07T12:31:53.743Z,22.79
2018-07-07T12:32:53.484Z,22.85
2018-07-07T12:33:53.738Z,22.84
2018-07-07T12:34:53.480Z,22.82
2018-07-07T12:35:53.483Z,22.84
2018-07-07T12:36:53.491Z,22.76
2018-07-07T12:37:53.483Z,22.66
2018-07-07T12:38:53.225Z,22.67
2018-07-07T12:39:53.737Z,22.63
2018-07-07T12:40:54.074Z,22.57
2018-07-07T12:41:53.739Z,22.54
2018-07-07T12:42:53.738Z,22.57
2018-07-07T12:43:53.479Z,22.57
2018-07-07T12:44:53.979Z,22.67
2018-07-07T12:45:53.854Z,22.51
2018-07-07T12:46:53.480Z,22.55
2018-07-07T12:47:53.736Z,22.51
2018-07-07T12:48:53.484Z,22.55
2018-07-07T12:49:53.477Z,22.6
2018-07-07T12:50:53.737Z,22.7
2018-07-07T12:51:53.529Z,22.81
2018-07-07T12:52:53.737Z,22.88
2018-07-07T12:53:53.479Z,22.89
2018-07-07T12:54:53.478Z,22.88
2018-07-07T12:55:53.740Z,22.85
2018-07-07T12:56:53.484Z,22.86
2018-07-07T12:57:53.735Z,22.79
2018-07-07T12:58:53.482Z,22.81
2018-07-07T12:59:53.738Z,22.85
2018-07-07T13:00:53.480Z,22.86
2018-07-07T13:01:53.734Z,22.89
2018-07-07T13:02:53.744Z,22.94